createdAt,value
2019-02-14T00:01:09.880Z,0.08
2019-02-14T00:03:37.333Z,-0.13
2019-02-14T00:06:04.785Z,-0.22
2019-02-14T00:08:32.287Z,-0.24
2019-02-14T00:10:59.785Z,-0.32
2019-02-14T00:13:27.147Z,-0.16
2019-02-14T00:15:54.620Z,-0.01
2019-02-14T00:18:22.042Z,0.07
2019-02-14T00:20:49.488Z,0.06
2019-02-14T00:23:17.100Z,-0.03
2019-02-14T00:25:44.695Z,-0.01
2019-02-14T00:28:12.232Z,-0.10
2019-02-14T00:30:39.597Z,0.06
2019-02-14T00:33:07.071Z,-0.07
2019-02-14T00:35:34.488Z,0.08
2019-02-14T00:38:01.966Z,0.10
2019-02-14T00:40:29.493Z,0.06
2019-02-14T00:42:56.923Z,-0.16
2019-02-14T00:45:24.348Z,-0.10
2019-02-14T00:47:51.850Z,-0.18
2019-02-14T00:50:19.381Z,0.03
2019-02-14T00:52:46.867Z,0.00
2019-02-14T00:55:14.323Z,-0.07
2019-02-14T00:57:41.729Z,-0.16
2019-02-14T01:00:09.957Z,-0.13
2019-02-14T01:02:37.413Z,-0.18
2019-02-14T01:05:05.119Z,-0.13
2019-02-14T01:07:32.617Z,-0.11
2019-02-14T01:10:00.293Z,0.22
2019-02-14T01:12:27.776Z,0.08
2019-02-14T01:14:55.140Z,0.04
2019-02-14T01:17:22.905Z,-0.09
2019-02-14T01:19:50.603Z,-0.09
2019-02-14T01:22:18.227Z,0.03
2019-02-14T01:24:45.609Z,0.04
2019-02-14T01:27:13.048Z,-0.07
2019-02-14T01:29:40.522Z,-0.22
2019-02-14T01:32:07.877Z,-0.38
2019-02-14T01:34:35.352Z,-0.06
2019-02-14T01:37:02.799Z,0.01
2019-02-14T01:39:30.258Z,-0.05
2019-02-14T01:41:57.685Z,-0.31
2019-02-14T01:44:25.087Z,-0.23
2019-02-14T01:46:52.559Z,-0.23
2019-02-14T01:49:20.207Z,-0.22
2019-02-14T01:51:47.771Z,-0.25
2019-02-14T01:54:15.275Z,-0.13
2019-02-14T01:56:42.830Z,-0.15
2019-02-14T01:59:10.289Z,-0.34
2019-02-14T02:01:37.839Z,-0.40
2019-02-14T02:04:05.357Z,-0.32
2019-02-14T02:06:32.801Z,-0.30
2019-02-14T02:09:00.236Z,-0.18
2019-02-14T02:11:27.672Z,-0.18
2019-02-14T02:13:55.147Z,-0.12
2019-02-14T02:16:22.595Z,-0.35
2019-02-14T02:18:49.976Z,-0.31
2019-02-14T02:21:17.436Z,-0.21
2019-02-14T02:23:44.893Z,-0.19
2019-02-14T02:26:12.418Z,-0.20
2019-02-14T02:28:39.803Z,-0.22
2019-02-14T02:31:07.248Z,-0.19
2019-02-14T02:33:34.633Z,-0.18
2019-02-14T02:36:02.026Z,-0.21
2019-02-14T02:38:29.611Z,-0.21
2019-02-14T02:40:57.057Z,-0.27
2019-02-14T02:43:24.490Z,-0.32
2019-02-14T02:45:51.859Z,-0.30
2019-02-14T02:48:19.313Z,-0.38
2019-02-14T02:50:46.864Z,-0.45
2019-02-14T02:53:14.265Z,-0.54
2019-02-14T02:55:41.726Z,-0.53
2019-02-14T02:58:09.239Z,-0.44
2019-02-14T03:00:36.658Z,-1.30
2019-02-14T03:03:04.190Z,-0.41
2019-02-14T03:05:31.745Z,-0.23
2019-02-14T03:07:59.315Z,-0.35
2019-02-14T03:10:26.843Z,-0.29
2019-02-14T03:12:54.320Z,-0.26
2019-02-14T03:15:21.830Z,-0.33
2019-02-14T03:17:49.243Z,-0.33
2019-02-14T03:20:16.710Z,-0.36
2019-02-14T03:22:44.151Z,-0.28
2019-02-14T03:25:13.818Z,-0.21
2019-02-14T03:27:41.272Z,-0.43
2019-02-14T03:30:09.381Z,-0.32
2019-02-14T03:32:36.748Z,-0.50
2019-02-14T03:35:04.514Z,-0.56
2019-02-14T03:37:31.945Z,-0.73
2019-02-14T03:39:59.334Z,-0.56
2019-02-14T03:42:26.761Z,-0.56
2019-02-14T03:44:54.174Z,-0.56
2019-02-14T03:47:21.608Z,-0.36
2019-02-14T03:49:49.037Z,-0.36
2019-02-14T03:52:16.770Z,-0.15
2019-02-14T03:54:44.364Z,-0.18
2019-02-14T03:57:11.789Z,-0.23
2019-02-14T03:59:39.234Z,-0.29
2019-02-14T04:02:07.018Z,-0.38
2019-02-14T04:04:34.519Z,-0.33
2019-02-14T04:07:01.956Z,-0.49
2019-02-14T04:09:29.549Z,-0.33
2019-02-14T04:11:56.958Z,-0.62
2019-02-14T04:14:24.886Z,-0.57
2019-02-14T04:16:52.333Z,-0.64
2019-02-14T04:19:19.926Z,-0.63
2019-02-14T04:21:47.388Z,-0.49
2019-02-14T04:24:14.857Z,-0.26
2019-02-14T04:26:42.309Z,-0.11
2019-02-14T04:29:09.691Z,-0.32
2019-02-14T04:31:37.159Z,-0.33
2019-02-14T04:34:04.882Z,-0.40
2019-02-14T04:36:36.050Z,-0.46
2019-02-14T04:39:01.635Z,-0.64
2019-02-14T04:41:29.025Z,-0.48
2019-02-14T04:43:56.516Z,-0.58
2019-02-14T04:46:23.991Z,-0.53
2019-02-14T04:48:51.475Z,-0.50
2019-02-14T04:51:18.948Z,-0.53
2019-02-14T04:53:46.557Z,-0.58
2019-02-14T04:56:14.043Z,-0.67
2019-02-14T04:58:41.421Z,-0.68
2019-02-14T05:01:08.977Z,-0.62
2019-02-14T05:03:36.708Z,-0.69
2019-02-14T05:06:04.282Z,-0.57
2019-02-14T05:08:31.732Z,-0.64
2019-02-14T05:10:59.248Z,-0.56
2019-02-14T05:13:26.760Z,-0.63
2019-02-14T05:15:54.126Z,-0.58
2019-02-14T05:18:21.587Z,-0.51
2019-02-14T05:20:49.064Z,-0.53
2019-02-14T05:23:16.515Z,-0.46
2019-02-14T05:25:43.949Z,-0.53
2019-02-14T05:28:11.323Z,-0.59
2019-02-14T05:30:38.796Z,-0.64
2019-02-14T05:33:06.234Z,-0.53
2019-02-14T05:35:33.671Z,-0.58
2019-02-14T05:38:01.068Z,-0.62
2019-02-14T05:40:28.507Z,-0.61
2019-02-14T05:42:55.944Z,-0.46
2019-02-14T05:45:23.418Z,-0.55
2019-02-14T05:47:50.785Z,-0.67
2019-02-14T05:50:18.352Z,-0.54
2019-02-14T05:52:45.805Z,-0.42
2019-02-14T05:55:13.340Z,-0.44
2019-02-14T05:57:41.070Z,-0.33
2019-02-14T06:00:10.586Z,-0.21
2019-02-14T06:02:38.182Z,-0.04
2019-02-14T06:05:05.825Z,0.06
2019-02-14T06:07:33.210Z,0.40
2019-02-14T06:10:00.649Z,0.48
2019-02-14T06:12:28.294Z,0.41
2019-02-14T06:14:55.731Z,0.40
2019-02-14T06:17:23.213Z,0.47
2019-02-14T06:19:50.648Z,0.69
2019-02-14T06:22:18.350Z,0.77
2019-02-14T06:24:45.856Z,0.91
2019-02-14T06:27:13.331Z,0.95
2019-02-14T06:29:40.776Z,1.02
2019-02-14T06:32:08.218Z,1.07
2019-02-14T06:34:35.656Z,1.07
2019-02-14T06:37:09.457Z,1.15
2019-02-14T06:39:32.411Z,1.20
2019-02-14T06:41:59.920Z,1.33
2019-02-14T06:44:27.380Z,1.15
2019-02-14T06:46:54.764Z,1.08
2019-02-14T06:49:22.568Z,1.33
2019-02-14T06:51:50.095Z,1.30
2019-02-14T06:54:17.495Z,1.41
2019-02-14T06:56:45.069Z,1.22
2019-02-14T06:59:12.631Z,1.38
2019-02-14T07:01:40.106Z,1.40
2019-02-14T07:04:07.570Z,1.45
2019-02-14T07:06:35.083Z,1.58
2019-02-14T07:09:04.454Z,1.51
2019-02-14T07:11:31.954Z,1.51
2019-02-14T07:13:59.417Z,1.30
2019-02-14T07:16:26.868Z,1.57
2019-02-14T07:18:54.293Z,1.43
2019-02-14T07:21:21.907Z,1.43
2019-02-14T07:23:49.259Z,1.44
2019-02-14T07:26:16.705Z,1.68
2019-02-14T07:28:44.138Z,1.71
2019-02-14T07:31:11.579Z,1.58
2019-02-14T07:33:39.004Z,1.59
2019-02-14T07:36:06.384Z,1.85
2019-02-14T07:38:33.833Z,1.86
2019-02-14T07:41:01.243Z,1.83
2019-02-14T07:43:28.781Z,1.92
2019-02-14T07:45:56.218Z,2.07
2019-02-14T07:48:23.656Z,2.22
2019-02-14T07:50:51.108Z,2.27
2019-02-14T07:53:18.512Z,2.46
2019-02-14T07:55:46.093Z,2.45
2019-02-14T07:58:13.670Z,2.79
2019-02-14T08:00:41.140Z,2.66
2019-02-14T08:03:08.575Z,2.62
2019-02-14T08:05:35.987Z,2.73
2019-02-14T08:08:03.348Z,2.54
2019-02-14T08:10:30.799Z,2.64
2019-02-14T08:12:58.257Z,2.95
2019-02-14T08:15:25.676Z,3.16
2019-02-14T08:17:53.118Z,3.40
2019-02-14T08:20:20.761Z,3.43
2019-02-14T08:22:48.201Z,3.48
2019-02-14T08:25:15.650Z,3.48
2019-02-14T08:27:43.082Z,3.59
2019-02-14T08:30:12.420Z,3.79
2019-02-14T08:32:39.965Z,3.57
2019-02-14T08:35:07.722Z,3.49
2019-02-14T08:37:35.190Z,3.50
2019-02-14T08:40:02.702Z,3.38
2019-02-14T08:42:30.129Z,3.37
2019-02-14T08:44:57.590Z,3.26
2019-02-14T08:47:24.992Z,3.67
2019-02-14T08:49:52.452Z,3.83
2019-02-14T08:52:19.915Z,4.11
2019-02-14T08:54:47.386Z,4.29
2019-02-14T08:57:14.765Z,4.25
2019-02-14T08:59:42.337Z,4.50
2019-02-14T09:02:09.896Z,4.40
2019-02-14T09:04:37.287Z,4.45
2019-02-14T09:07:04.737Z,4.16
2019-02-14T09:09:32.165Z,4.54
2019-02-14T09:12:00.144Z,4.54
2019-02-14T09:14:27.552Z,4.64
2019-02-14T09:16:55.012Z,4.78
2019-02-14T09:19:22.501Z,4.78
2019-02-14T09:21:49.916Z,4.70
2019-02-14T09:24:17.306Z,4.73
2019-02-14T09:26:44.741Z,4.92
2019-02-14T09:29:14.316Z,5.04
2019-02-14T09:31:41.480Z,5.19
2019-02-14T09:34:08.907Z,5.39
2019-02-14T09:36:36.351Z,5.03
2019-02-14T09:39:05.139Z,5.10
2019-02-14T09:41:32.569Z,5.41
2019-02-14T09:44:00.093Z,5.77
2019-02-14T09:46:27.550Z,5.53
2019-02-14T09:48:55.007Z,5.51
2019-02-14T09:51:22.387Z,5.54
2019-02-14T09:53:49.856Z,5.80
2019-02-14T09:56:17.294Z,6.04
2019-02-14T09:58:44.720Z,6.04
2019-02-14T10:01:12.284Z,5.99
2019-02-14T10:03:39.828Z,5.82
2019-02-14T10:06:07.350Z,5.86
2019-02-14T10:08:34.827Z,6.28
2019-02-14T10:11:02.290Z,6.54
2019-02-14T10:13:29.923Z,6.49
2019-02-14T10:15:57.342Z,6.52
2019-02-14T10:18:24.719Z,6.35
2019-02-14T10:20:52.163Z,6.44
2019-02-14T10:23:19.586Z,6.87
2019-02-14T10:25:47.019Z,6.84
2019-02-14T10:28:14.448Z,6.84
2019-02-14T10:30:41.863Z,6.99
2019-02-14T10:33:09.266Z,6.79
2019-02-14T10:35:36.686Z,6.91
2019-02-14T10:38:04.161Z,6.85
2019-02-14T10:40:31.733Z,6.85
2019-02-14T10:42:59.106Z,6.82
2019-02-14T10:45:26.619Z,7.09
2019-02-14T10:47:54.127Z,6.95
2019-02-14T10:50:21.501Z,7.13
2019-02-14T10:52:49.005Z,7.31
2019-02-14T10:55:16.547Z,7.49
2019-02-14T10:57:44.099Z,7.47
2019-02-14T11:00:17.622Z,7.24
2019-02-14T11:02:46.073Z,7.36
2019-02-14T11:05:14.520Z,7.28
2019-02-14T11:07:42.009Z,7.14
2019-02-14T11:10:10.088Z,7.52
2019-02-14T11:12:37.648Z,7.75
2019-02-14T11:15:05.684Z,7.59
2019-02-14T11:17:33.071Z,7.50
2019-02-14T11:20:00.484Z,7.53
2019-02-14T11:22:27.909Z,7.74
2019-02-14T11:24:55.458Z,7.66
2019-02-14T11:27:22.879Z,8.10
2019-02-14T11:29:50.314Z,8.43
2019-02-14T11:32:17.747Z,8.70
2019-02-14T11:34:45.128Z,8.58
2019-02-14T11:37:12.573Z,8.27
2019-02-14T11:39:40.000Z,8.47
2019-02-14T11:42:07.365Z,8.42
2019-02-14T11:44:39.847Z,8.30
2019-02-14T11:47:04.147Z,8.23
2019-02-14T11:49:31.583Z,8.12
2019-02-14T11:51:58.955Z,8.47
2019-02-14T11:54:26.532Z,8.38
2019-02-14T11:56:54.036Z,8.54
2019-02-14T11:59:21.388Z,8.47
2019-02-14T12:01:55.237Z,8.08
2019-02-14T12:04:18.312Z,7.95
2019-02-14T12:06:45.775Z,7.91
2019-02-14T12:09:13.363Z,8.03
2019-02-14T12:11:40.800Z,7.97
2019-02-14T12:14:08.228Z,8.14
2019-02-14T12:16:35.633Z,8.09
2019-02-14T12:19:03.159Z,8.07
2019-02-14T12:21:30.584Z,8.23
2019-02-14T12:23:57.938Z,8.24
2019-02-14T12:26:25.439Z,8.16
2019-02-14T12:28:53.003Z,8.02
2019-02-14T12:31:20.401Z,8.20
2019-02-14T12:33:47.847Z,8.06
2019-02-14T12:36:15.328Z,8.32
2019-02-14T12:38:42.780Z,8.23
2019-02-14T12:41:10.208Z,7.93
2019-02-14T12:43:37.585Z,8.12
2019-02-14T12:46:05.019Z,8.38
2019-02-14T12:48:32.466Z,7.97
2019-02-14T12:50:59.886Z,7.60
2019-02-14T12:53:27.317Z,7.48
2019-02-14T12:55:54.763Z,7.38
2019-02-14T12:58:22.151Z,7.01
2019-02-14T13:00:49.602Z,6.99
2019-02-14T13:03:17.051Z,6.91
2019-02-14T13:05:44.559Z,6.71
2019-02-14T13:08:12.080Z,6.69
2019-02-14T13:10:39.565Z,6.65
2019-02-14T13:13:07.047Z,6.51
2019-02-14T13:15:34.510Z,6.48
2019-02-14T13:18:02.021Z,6.49
2019-02-14T13:20:29.453Z,6.70
2019-02-14T13:22:56.907Z,6.90
2019-02-14T13:25:24.342Z,6.73
2019-02-14T13:27:51.821Z,6.43
2019-02-14T13:30:20.824Z,6.37
2019-02-14T13:32:48.291Z,6.44
2019-02-14T13:35:15.738Z,6.38
2019-02-14T13:37:43.160Z,6.34
2019-02-14T13:40:10.595Z,6.08
2019-02-14T13:42:38.063Z,6.11
2019-02-14T13:45:08.109Z,6.25
2019-02-14T13:47:35.495Z,6.23
2019-02-14T13:50:03.009Z,6.40
2019-02-14T13:52:30.453Z,6.12
2019-02-14T13:54:57.813Z,6.23
2019-02-14T13:57:25.242Z,6.21
2019-02-14T13:59:52.709Z,6.17
2019-02-14T14:02:20.133Z,6.18
2019-02-14T14:04:47.594Z,6.04
2019-02-14T14:07:15.184Z,5.86
2019-02-14T14:09:42.580Z,5.82
2019-02-14T14:12:10.029Z,5.49
2019-02-14T14:14:37.488Z,5.51
2019-02-14T14:17:04.900Z,5.43
2019-02-14T14:19:32.421Z,5.53
2019-02-14T14:21:59.899Z,5.38
2019-02-14T14:24:27.278Z,5.29
2019-02-14T14:26:54.766Z,5.19
2019-02-14T14:29:22.181Z,4.95
2019-02-14T14:31:49.625Z,4.99
2019-02-14T14:34:17.050Z,5.03
2019-02-14T14:36:44.442Z,5.13
2019-02-14T14:39:11.851Z,5.19
2019-02-14T14:41:39.287Z,4.99
2019-02-14T14:44:33.103Z,5.08
2019-02-14T14:47:08.883Z,5.13
2019-02-14T14:49:36.340Z,4.97
2019-02-14T14:52:03.782Z,5.01
2019-02-14T14:54:31.144Z,5.10
2019-02-14T14:56:58.602Z,5.03
2019-02-14T14:59:26.047Z,5.11
2019-02-14T15:01:53.573Z,5.11
2019-02-14T15:04:21.023Z,4.95
2019-02-14T15:06:48.439Z,4.94
2019-02-14T15:09:15.977Z,4.99
2019-02-14T15:11:43.379Z,4.85
2019-02-14T15:14:10.920Z,4.98
2019-02-14T15:16:38.334Z,5.05
2019-02-14T15:19:05.776Z,4.99
2019-02-14T15:21:33.160Z,4.77
2019-02-14T15:24:00.602Z,4.70
2019-02-14T15:26:28.042Z,4.77
2019-02-14T15:28:55.509Z,4.64
2019-02-14T15:31:22.867Z,4.62
2019-02-14T15:33:50.320Z,4.61
2019-02-14T15:36:17.750Z,4.42
2019-02-14T15:38:45.156Z,4.45
2019-02-14T15:41:12.617Z,4.53
2019-02-14T15:43:40.047Z,4.64
2019-02-14T15:46:07.478Z,4.58
2019-02-14T15:48:34.850Z,4.63
2019-02-14T15:51:02.305Z,4.71
2019-02-14T15:53:29.759Z,4.60
2019-02-14T15:55:57.186Z,4.59
2019-02-14T15:58:24.619Z,4.53
2019-02-14T16:00:53.997Z,4.55
2019-02-14T16:03:21.418Z,4.42
2019-02-14T16:05:48.771Z,4.29
2019-02-14T16:08:16.199Z,4.19
2019-02-14T16:10:43.801Z,4.53
2019-02-14T16:13:11.325Z,4.48
2019-02-14T16:15:38.797Z,4.43
2019-02-14T16:18:06.132Z,4.40
2019-02-14T16:20:33.598Z,4.32
2019-02-14T16:23:01.057Z,4.38
2019-02-14T16:25:30.196Z,4.44
2019-02-14T16:27:57.795Z,4.42
2019-02-14T16:30:25.277Z,4.39
2019-02-14T16:32:52.744Z,4.36
2019-02-14T16:35:20.128Z,4.40
2019-02-14T16:37:48.728Z,4.41
2019-02-14T16:40:16.967Z,4.37
2019-02-14T16:42:44.474Z,4.43
2019-02-14T16:45:11.972Z,4.31
2019-02-14T16:47:39.369Z,4.14
2019-02-14T16:50:07.158Z,4.21
2019-02-14T16:52:34.610Z,4.29
2019-02-14T16:55:02.051Z,4.29
2019-02-14T16:57:29.512Z,4.20
2019-02-14T16:59:56.961Z,4.29
2019-02-14T17:02:24.404Z,4.41
2019-02-14T17:04:51.812Z,4.36
2019-02-14T17:07:19.234Z,4.27
2019-02-14T17:09:46.764Z,4.27
2019-02-14T17:12:14.345Z,4.18
2019-02-14T17:14:41.766Z,4.06
2019-02-14T17:17:09.216Z,3.99
2019-02-14T17:19:36.691Z,4.10
2019-02-14T17:22:04.178Z,4.04
2019-02-14T17:24:31.633Z,3.93
2019-02-14T17:26:59.148Z,4.01
2019-02-14T17:29:26.505Z,3.84
2019-02-14T17:31:53.988Z,3.92
2019-02-14T17:34:21.430Z,3.89
2019-02-14T17:36:48.990Z,4.02
2019-02-14T17:39:16.446Z,3.98
2019-02-14T17:41:43.843Z,3.95
2019-02-14T17:44:11.274Z,3.97
2019-02-14T17:46:38.717Z,4.02
2019-02-14T17:49:06.091Z,4.06
2019-02-14T17:51:33.549Z,3.77
2019-02-14T17:54:01.832Z,3.96
2019-02-14T17:56:29.339Z,3.81
2019-02-14T17:58:56.765Z,3.77
2019-02-14T18:01:24.326Z,3.86
2019-02-14T18:03:51.780Z,3.84
2019-02-14T18:06:19.156Z,3.98
2019-02-14T18:08:46.596Z,3.94
2019-02-14T18:11:14.045Z,4.06
2019-02-14T18:13:41.683Z,3.61
2019-02-14T18:16:09.187Z,3.73
2019-02-14T18:18:36.681Z,3.73
2019-02-14T18:21:04.062Z,3.77
2019-02-14T18:23:31.527Z,3.79
2019-02-14T18:25:58.944Z,3.68
2019-02-14T18:28:26.416Z,3.54
2019-02-14T18:30:53.854Z,3.75
2019-02-14T18:33:21.458Z,3.84
2019-02-14T18:35:48.942Z,3.84
2019-02-14T18:38:16.426Z,3.62
2019-02-14T18:40:43.812Z,3.64
2019-02-14T18:43:11.310Z,3.82
2019-02-14T18:45:38.717Z,3.93
2019-02-14T18:48:06.118Z,3.81
2019-02-14T18:50:33.582Z,3.88
2019-02-14T18:53:01.035Z,3.95
2019-02-14T18:55:28.443Z,4.00
2019-02-14T18:57:55.887Z,4.09
2019-02-14T19:00:23.391Z,3.90
2019-02-14T19:02:50.823Z,3.93
2019-02-14T19:05:18.311Z,4.03
2019-02-14T19:07:45.731Z,3.96
2019-02-14T19:10:13.332Z,3.95
2019-02-14T19:12:40.859Z,4.01
2019-02-14T19:15:09.913Z,3.83
2019-02-14T19:17:37.458Z,3.79
2019-02-14T19:20:05.647Z,3.86
2019-02-14T19:22:33.205Z,3.80
2019-02-14T19:25:00.690Z,3.84
2019-02-14T19:27:28.096Z,3.91
2019-02-14T19:29:56.363Z,3.90
2019-02-14T19:32:23.922Z,3.82
2019-02-14T19:34:52.395Z,3.92
2019-02-14T19:37:20.016Z,3.95
2019-02-14T19:39:47.651Z,4.10
2019-02-14T19:42:15.116Z,4.03
2019-02-14T19:44:43.038Z,4.13
2019-02-14T19:47:10.506Z,4.05
2019-02-14T19:49:37.990Z,4.13
2019-02-14T19:52:05.410Z,3.94
2019-02-14T19:54:32.935Z,3.87
2019-02-14T19:57:00.303Z,3.82
2019-02-14T19:59:27.755Z,3.78
2019-02-14T20:01:55.171Z,3.81
2019-02-14T20:04:22.991Z,3.97
2019-02-14T20:06:50.461Z,4.04
2019-02-14T20:09:19.448Z,3.94
2019-02-14T20:11:46.915Z,4.05
2019-02-14T20:14:14.370Z,4.05
2019-02-14T20:16:42.016Z,3.92
2019-02-14T20:19:09.627Z,3.95
2019-02-14T20:21:38.718Z,4.07
2019-02-14T20:24:06.170Z,4.18
2019-02-14T20:26:33.677Z,4.15
2019-02-14T20:29:01.155Z,4.04
2019-02-14T20:31:28.647Z,4.19
2019-02-14T20:33:56.217Z,4.20
2019-02-14T20:36:23.884Z,3.99
2019-02-14T20:38:51.887Z,4.10
2019-02-14T20:41:19.374Z,4.05
2019-02-14T20:43:46.839Z,4.05
2019-02-14T20:46:14.217Z,4.07
2019-02-14T20:48:41.678Z,3.98
2019-02-14T20:51:09.213Z,3.81
2019-02-14T20:53:36.639Z,3.48
2019-02-14T20:56:04.127Z,3.78
2019-02-14T20:58:31.689Z,3.85
2019-02-14T21:00:59.959Z,3.86
2019-02-14T21:03:27.319Z,3.62
2019-02-14T21:05:54.754Z,3.57
2019-02-14T21:08:22.199Z,3.67
2019-02-14T21:10:49.593Z,3.89
2019-02-14T21:13:17.031Z,3.83
2019-02-14T21:15:44.973Z,3.94
2019-02-14T21:18:12.601Z,3.99
2019-02-14T21:20:40.242Z,4.14
2019-02-14T21:23:07.716Z,4.08
2019-02-14T21:25:35.101Z,4.17
2019-02-14T21:28:02.692Z,4.10
2019-02-14T21:30:35.118Z,3.81
2019-02-14T21:33:00.468Z,4.02
2019-02-14T21:35:27.829Z,4.09
2019-02-14T21:37:55.252Z,4.09
2019-02-14T21:40:22.676Z,4.12
2019-02-14T21:42:50.160Z,4.22
2019-02-14T21:45:17.589Z,4.22
2019-02-14T21:47:45.065Z,4.07
2019-02-14T21:50:12.779Z,4.19
2019-02-14T21:52:40.281Z,4.03
2019-02-14T21:55:08.616Z,4.16
2019-02-14T21:57:36.059Z,3.99
2019-02-14T22:00:04.975Z,3.87
2019-02-14T22:02:32.430Z,3.78
2019-02-14T22:04:59.892Z,3.77
2019-02-14T22:07:27.301Z,3.82
2019-02-14T22:09:54.730Z,4.07
2019-02-14T22:12:38.913Z,4.16
2019-02-14T22:14:51.543Z,4.18
2019-02-14T22:17:19.083Z,4.37
2019-02-14T22:19:46.627Z,4.22
2019-02-14T22:22:14.000Z,4.17
2019-02-14T22:24:41.540Z,4.21
2019-02-14T22:27:08.970Z,3.89
2019-02-14T22:29:36.365Z,4.01
2019-02-14T22:32:03.821Z,4.10
2019-02-14T22:34:31.268Z,3.73
2019-02-14T22:36:58.689Z,3.70
2019-02-14T22:39:26.479Z,3.82
2019-02-14T22:41:53.977Z,3.75
2019-02-14T22:44:21.410Z,4.03
2019-02-14T22:46:48.833Z,4.14
2019-02-14T22:49:16.282Z,4.15
2019-02-14T22:51:43.699Z,4.25
2019-02-14T22:54:11.085Z,4.26
2019-02-14T22:56:38.524Z,4.10
2019-02-14T22:59:05.964Z,3.99
2019-02-14T23:01:33.459Z,3.96
2019-02-14T23:04:00.921Z,4.11
2019-02-14T23:06:29.369Z,4.16
2019-02-14T23:08:57.061Z,3.89
2019-02-14T23:11:24.487Z,4.01
2019-02-14T23:13:51.937Z,3.74
2019-02-14T23:16:19.406Z,3.79
2019-02-14T23:18:46.863Z,3.71
2019-02-14T23:21:14.405Z,3.66
2019-02-14T23:23:41.899Z,3.73
2019-02-14T23:26:09.332Z,3.62
2019-02-14T23:28:36.774Z,3.75
2019-02-14T23:31:04.247Z,3.73
2019-02-14T23:33:31.663Z,3.94
2019-02-14T23:35:59.094Z,3.95
2019-02-14T23:38:26.488Z,4.02
2019-02-14T23:40:53.912Z,4.01
2019-02-14T23:43:21.385Z,3.94
2019-02-14T23:45:48.769Z,3.78
2019-02-14T23:48:16.244Z,3.80
2019-02-14T23:50:43.641Z,4.00
2019-02-14T23:53:11.075Z,3.94
2019-02-14T23:55:38.507Z,3.72
2019-02-14T23:58:06.032Z,3.66
